Time;durP1;ratioP1;P1;durP2;ratioP2;P2;SDS_P1;SDS_P2;PMS_P1;PMS_P2;Temp;Humidity;BMP_temperature;BMP_pressure;BME280_temperature;BME280_humidity;BME280_pressure;Samples;Min_cycle;Max_cycle;Signal;HPM_P1;HPM_P2
2021/01/12 00:01:55;;;;;;;;;;;;;;;18.91;57.52;101229.44;5079290;28;1667;-56
2021/01/12 00:04:20;;;;;;;;;;;;;;;18.92;57.27;101242.72;5074993;28;1685;-66
2021/01/12 00:06:48;;;;;;;;;;;;;;;18.92;56.93;101250.78;5080036;28;1646;-66
2021/01/12 00:09:13;;;;;;;;;;;;;;;18.90;57.11;101258.09;5073908;28;1580;-66
2021/01/12 00:11:39;;;;;;;;;;;;;;;18.87;57.14;101244.91;5075794;28;1605;-66
2021/01/12 00:14:04;;;;;;;;;;;;;;;18.88;56.79;101262.72;5075390;28;1632;-56
2021/01/12 00:16:29;;;;;;;;;;;;;;;18.87;56.84;101263.66;5074969;28;1590;-66
2021/01/12 00:18:55;;;;;;;;;;;;;;;18.88;56.93;101284.16;5075951;28;1922;-57
2021/01/12 00:21:26;;;;;;;;;;;;;;;18.89;56.85;101291.19;5074434;28;1733;-56
2021/01/12 00:23:52;;;;;;;;;;;;;;;18.85;56.98;101279.88;5074570;28;1657;-56
2021/01/12 00:26:17;;;;;;;;;;;;;;;18.84;56.79;101280.84;5066421;28;1511;-56
2021/01/12 00:28:43;;;;;;;;;;;;;;;18.79;56.61;101275.00;5075267;28;1493;-56
2021/01/12 00:31:08;;;;;;;;;;;;;;;18.80;56.94;101287.44;5064504;28;1605;-66
2021/01/12 00:33:33;;;;;;;;;;;;;;;18.81;56.87;101282.91;5074369;28;1562;-56
2021/01/12 00:36:08;;;;;;;;;;;;;;;18.82;56.54;101284.59;5069648;28;1535;-66
2021/01/12 00:38:34;;;;;;;;;;;;;;;18.80;56.31;101275.84;5067821;28;1894;-65
2021/01/12 00:41:04;;;;;;;;;;;;;;;18.81;56.43;101272.19;5080282;28;1610;-66
2021/01/12 00:43:29;;;;;;;;;;;;;;;18.78;56.24;101241.13;5075326;28;1629;-56
2021/01/12 00:45:54;;;;;;;;;;;;;;;18.80;56.56;101260.63;5075216;28;1692;-66
2021/01/12 00:48:20;;;;;;;;;;;;;;;18.81;56.09;101232.00;5074960;28;1625;-56
2021/01/12 00:50:45;;;;;;;;;;;;;;;18.77;56.48;101214.44;5079044;28;1751;-56
2021/01/12 00:53:10;;;;;;;;;;;;;;;18.79;56.28;101205.34;5077511;28;1701;-57
2021/01/12 00:55:36;;;;;;;;;;;;;;;18.79;56.10;101199.09;5079054;28;1514;-66
2021/01/12 00:58:01;;;;;;;;;;;;;;;18.80;56.44;101208.84;5075223;28;1726;-66
2021/01/12 01:00:27;;;;;;;;;;;;;;;18.80;56.14;101222.25;5074734;28;1886;-56
2021/01/12 01:02:52;;;;;;;;;;;;;;;18.77;56.00;101207.25;5075476;28;1790;-66
2021/01/12 01:05:18;;;;;;;;;;;;;;;18.74;55.74;101201.28;5076154;28;1873;-66
2021/01/12 01:07:46;;;;;;;;;;;;;;;18.78;55.59;101216.13;5082764;28;1735;-66
2021/01/12 01:10:11;;;;;;;;;;;;;;;18.79;56.02;101204.47;5078091;28;1612;-57
2021/01/12 01:12:37;;;;;;;;;;;;;;;18.75;56.28;101193.13;5075571;28;1576;-66
2021/01/12 01:15:02;;;;;;;;;;;;;;;18.77;55.87;101199.22;5084806;28;1685;-56
2021/01/12 01:17:28;;;;;;;;;;;;;;;18.77;55.72;101190.34;5075048;28;1515;-65
2021/01/12 01:19:53;;;;;;;;;;;;;;;18.78;56.03;101183.97;5075152;28;1906;-66
2021/01/12 01:22:22;;;;;;;;;;;;;;;18.75;55.70;101182.41;5075373;28;1714;-56
2021/01/12 01:24:47;;;;;;;;;;;;;;;18.81;55.07;101189.13;5081137;28;1767;-56
2021/01/12 01:27:12;;;;;;;;;;;;;;;18.78;55.87;101200.06;5061287;28;1550;-66
2021/01/12 01:29:38;;;;;;;;;;;;;;;18.79;55.60;101215.16;5075484;28;1740;-56
2021/01/12 01:32:03;;;;;;;;;;;;;;;18.76;55.89;101226.13;5071645;28;1824;-66
2021/01/12 01:34:28;;;;;;;;;;;;;;;18.77;55.55;101217.13;5075882;28;1573;-56
2021/01/12 01:36:58;;;;;;;;;;;;;;;18.73;55.18;101199.59;5071654;28;1593;-64
2021/01/12 01:39:23;;;;;;;;;;;;;;;18.69;55.77;101189.09;5071220;28;1937;-56
2021/01/12 01:41:48;;;;;;;;;;;;;;;18.71;55.43;101186.31;5074686;28;1541;-66
2021/01/12 01:44:14;;;;;;;;;;;;;;;18.72;55.19;101181.81;5073991;28;1475;-56
2021/01/12 01:46:42;;;;;;;;;;;;;;;18.71;55.45;101185.47;5074342;28;1582;-66
2021/01/12 01:49:08;;;;;;;;;;;;;;;18.69;55.54;101188.25;5074171;28;1559;-56
2021/01/12 01:51:33;;;;;;;;;;;;;;;18.71;55.29;101185.47;5074984;28;2329;-66
2021/01/12 01:53:59;;;;;;;;;;;;;;;18.69;55.01;101177.56;5074368;28;1668;-56
2021/01/12 01:56:28;;;;;;;;;;;;;;;18.67;55.26;101164.28;5058514;28;1656;-58
2021/01/12 01:58:53;;;;;;;;;;;;;;;18.69;55.44;101156.97;5076102;28;1985;-65
2021/01/12 02:01:19;;;;;;;;;;;;;;;18.68;54.94;101139.19;5073847;28;1605;-66
2021/01/12 02:03:48;;;;;;;;;;;;;;;18.71;55.61;101137.25;5063076;28;1428;-65
2021/01/12 02:06:21;;;;;;;;;;;;;;;18.70;54.96;101114.94;5074736;28;1534;-56
2021/01/12 02:09:05;;;;;;;;;;;;;;;18.68;55.39;101111.53;5074416;28;1669;-56
2021/01/12 02:11:34;;;;;;;;;;;;;;;18.67;54.79;101142.00;5072899;28;1689;-66
2021/01/12 02:14:04;;;;;;;;;;;;;;;18.65;54.82;101138.59;5074052;28;1582;-56
2021/01/12 02:16:29;;;;;;;;;;;;;;;18.65;55.04;101150.16;5082637;28;1561;-66
2021/01/12 02:18:59;;;;;;;;;;;;;;;18.66;55.21;101151.88;5077048;28;1914;-66
2021/01/12 02:21:26;;;;;;;;;;;;;;;18.65;55.13;101160.88;5084837;28;1581;-66
2021/01/12 02:23:53;;;;;;;;;;;;;;;18.65;54.90;101136.75;5076623;28;1589;-56
2021/01/12 02:26:19;;;;;;;;;;;;;;;18.71;55.49;101131.91;5075414;28;1605;-66
2021/01/12 02:28:44;;;;;;;;;;;;;;;18.72;56.75;101129.09;5073516;28;1734;-65
2021/01/12 02:31:09;;;;;;;;;;;;;;;18.77;57.10;101116.16;5077390;28;1561;-56
2021/01/12 02:33:38;;;;;;;;;;;;;;;18.78;57.58;101141.13;5074523;28;1651;-56
2021/01/12 02:36:04;;;;;;;;;;;;;;;18.85;58.12;101137.00;5059635;28;1550;-61
2021/01/12 02:38:29;;;;;;;;;;;;;;;18.85;58.16;101134.31;5078754;28;1885;-56
2021/01/12 02:40:54;;;;;;;;;;;;;;;18.83;58.36;101122.88;5074851;28;1522;-58
2021/01/12 02:43:20;;;;;;;;;;;;;;;18.80;58.49;101109.72;5073653;28;1621;-56
2021/01/12 02:45:45;;;;;;;;;;;;;;;18.83;58.93;101109.47;5078431;28;1485;-56
2021/01/12 02:48:10;;;;;;;;;;;;;;;18.83;58.60;101114.84;5078767;28;1522;-56
2021/01/12 02:50:36;;;;;;;;;;;;;;;18.81;58.16;101111.44;5075043;28;1537;-56
2021/01/12 02:53:01;;;;;;;;;;;;;;;18.79;58.71;101118.72;5072828;28;1351;-56
2021/01/12 02:55:26;;;;;;;;;;;;;;;18.79;58.99;101124.06;5077634;28;1506;-64
2021/01/12 02:57:52;;;;;;;;;;;;;;;18.76;58.38;101124.31;5054917;28;1309;-56
2021/01/12 03:02:59;;;;;;;;;;;;;;;18.81;58.71;101120.31;4379615;26;1789;-48
2021/01/12 03:05:26;;;;;;;;;;;;;;;18.75;58.62;101083.28;5056746;28;1847;-48
2021/01/12 03:07:54;;;;;;;;;;;;;;;18.76;58.47;101070.72;5052795;28;1836;-47
2021/01/12 03:10:19;;;;;;;;;;;;;;;18.76;58.43;101084.13;5069427;23;3616;-57
2021/01/12 03:12:44;;;;;;;;;;;;;;;18.78;58.03;101096.44;5068221;28;1405;-57
2021/01/12 03:15:10;;;;;;;;;;;;;;;18.74;57.89;101078.03;5071391;28;1308;-66
2021/01/12 03:17:36;;;;;;;;;;;;;;;18.77;58.27;101073.28;5068844;28;1366;-66
2021/01/12 03:20:01;;;;;;;;;;;;;;;18.74;58.33;101062.84;5067759;28;1919;-57
2021/01/12 03:22:26;;;;;;;;;;;;;;;18.71;58.07;101048.84;5069438;28;1585;-65
2021/01/12 03:24:52;;;;;;;;;;;;;;;18.65;57.62;101042.16;5069124;28;1574;-57
2021/01/12 03:27:17;;;;;;;;;;;;;;;18.67;57.59;101030.34;5071099;28;1441;-63
2021/01/12 03:29:42;;;;;;;;;;;;;;;18.64;57.49;100998.47;5072382;28;1363;-57
2021/01/12 03:32:08;;;;;;;;;;;;;;;18.64;57.42;101025.25;5071841;28;1621;-66
2021/01/12 03:34:33;;;;;;;;;;;;;;;18.66;57.45;101059.91;5067832;28;1547;-56
2021/01/12 03:36:59;;;;;;;;;;;;;;;18.63;56.88;101066.38;5075835;28;1723;-57
2021/01/12 03:39:24;;;;;;;;;;;;;;;18.64;57.43;101061.88;5058753;28;1890;-57
2021/01/12 03:41:49;;;;;;;;;;;;;;;18.66;57.14;101060.78;5069557;28;1716;-66
2021/01/12 03:44:15;;;;;;;;;;;;;;;18.65;56.55;101050.19;5074112;28;1575;-65
2021/01/12 03:46:49;;;;;;;;;;;;;;;18.64;56.68;101051.16;5075300;28;1833;-57
2021/01/12 03:49:14;;;;;;;;;;;;;;;18.65;56.43;101061.75;5070982;28;1744;-57
2021/01/12 03:52:17;;;;;;;;;;;;;;;18.62;56.71;101075.41;5068007;28;2103;-65
2021/01/12 03:54:43;;;;;;;;;;;;;;;18.46;58.31;101058.88;5070386;28;1508;-56
2021/01/12 03:57:08;;;;;;;;;;;;;;;18.31;59.11;101044.06;5072466;28;1629;-59
2021/01/12 03:59:34;;;;;;;;;;;;;;;18.24;59.39;101060.63;5074797;28;1893;-57
2021/01/12 04:01:59;;;;;;;;;;;;;;;18.18;60.47;101090.53;5083338;28;1605;-56
2021/01/12 04:04:25;;;;;;;;;;;;;;;18.16;60.90;101083.63;5077957;28;1637;-65
2021/01/12 04:06:50;;;;;;;;;;;;;;;18.10;60.85;101058.19;5096638;28;1534;-65
2021/01/12 04:09:15;;;;;;;;;;;;;;;18.10;60.52;101047.47;5094565;28;1645;-66
2021/01/12 04:11:41;;;;;;;;;;;;;;;18.04;61.03;101034.59;5091817;28;1605;-57
2021/01/12 04:14:06;;;;;;;;;;;;;;;18.01;61.32;101042.88;5094856;28;1473;-66
2021/01/12 04:16:32;;;;;;;;;;;;;;;18.02;60.51;101042.75;5096177;28;1723;-65
2021/01/12 04:18:57;;;;;;;;;;;;;;;18.03;60.89;101054.31;5091481;28;1971;-57
2021/01/12 04:21:22;;;;;;;;;;;;;;;18.02;60.91;101028.50;5094429;28;1806;-62
2021/01/12 04:23:48;;;;;;;;;;;;;;;18.01;61.91;101010.78;5095118;28;1628;-65
2021/01/12 04:26:13;;;;;;;;;;;;;;;18.03;61.83;101019.53;5092784;28;1561;-57
2021/01/12 04:28:39;;;;;;;;;;;;;;;18.01;60.98;101016.13;5093325;28;1521;-65
2021/01/12 04:31:04;;;;;;;;;;;;;;;17.99;61.30;101026.09;5095442;28;1538;-65
2021/01/12 04:33:29;;;;;;;;;;;;;;;17.95;62.18;101021.97;5095456;28;1681;-65
2021/01/12 04:35:55;;;;;;;;;;;;;;;17.91;61.73;101001.78;5089991;28;1605;-65
2021/01/12 04:38:20;;;;;;;;;;;;;;;17.94;62.27;101001.53;5094836;28;1582;-65
2021/01/12 04:40:46;;;;;;;;;;;;;;;17.94;61.90;101004.19;5087833;28;1886;-65
2021/01/12 04:43:11;;;;;;;;;;;;;;;17.91;62.54;101015.16;5095783;28;1657;-65
2021/01/12 04:45:37;;;;;;;;;;;;;;;17.91;62.34;101015.16;5093094;28;1739;-57
2021/01/12 04:48:03;;;;;;;;;;;;;;;17.89;61.74;101029.50;5093433;28;1408;-56
2021/01/12 04:50:28;;;;;;;;;;;;;;;17.89;62.25;101018.78;5093358;28;1570;-57
2021/01/12 04:52:54;;;;;;;;;;;;;;;17.86;61.77;101024.38;5089259;28;1574;-65
2021/01/12 04:55:20;;;;;;;;;;;;;;;17.88;62.62;101022.44;5085457;28;1647;-65
2021/01/12 04:57:47;;;;;;;;;;;;;;;17.85;62.58;101016.50;5091579;28;1683;-56
2021/01/12 05:00:14;;;;;;;;;;;;;;;17.86;62.23;101019.03;5094783;28;1877;-65
2021/01/12 05:02:40;;;;;;;;;;;;;;;17.87;62.40;101025.25;5093143;28;1583;-65
2021/01/12 05:05:06;;;;;;;;;;;;;;;17.82;62.51;101017.53;5094282;28;1616;-65
2021/01/12 05:07:33;;;;;;;;;;;;;;;17.82;62.08;101022.88;5094885;28;1644;-60
2021/01/12 05:09:59;;;;;;;;;;;;;;;17.82;61.94;101027.41;5086990;28;1534;-65
2021/01/12 05:12:24;;;;;;;;;;;;;;;17.85;62.50;101006.63;5093596;28;1679;-57
2021/01/12 05:14:52;;;;;;;;;;;;;;;17.81;61.75;100986.44;5093955;28;1613;-56
2021/01/12 05:17:23;;;;;;;;;;;;;;;17.85;62.56;100985.25;5087801;28;1606;-58
2021/01/12 05:19:52;;;;;;;;;;;;;;;17.84;63.07;100994.22;5093932;28;1985;-57
2021/01/12 05:22:18;;;;;;;;;;;;;;;17.82;62.65;100990.78;5092461;28;1662;-57
2021/01/12 05:24:45;;;;;;;;;;;;;;;17.85;63.31;100995.09;5088647;28;1653;-57
2021/01/12 05:27:11;;;;;;;;;;;;;;;17.89;63.48;101007.25;5093609;28;1605;-57
2021/01/12 05:29:37;;;;;;;;;;;;;;;17.87;63.37;101004.69;5090243;28;1750;-66
2021/01/12 05:32:03;;;;;;;;;;;;;;;17.82;63.46;100988.13;5094779;28;1811;-67
2021/01/12 05:34:30;;;;;;;;;;;;;;;17.83;62.55;100970.25;5076550;28;1547;-66
2021/01/12 05:36:56;;;;;;;;;;;;;;;17.82;62.65;100981.91;5093375;28;1613;-66
2021/01/12 05:39:23;;;;;;;;;;;;;;;17.79;62.68;100961.63;5093466;28;1889;-57
2021/01/12 05:41:50;;;;;;;;;;;;;;;17.80;62.97;100971.34;5090223;28;1726;-58
2021/01/12 05:44:16;;;;;;;;;;;;;;;17.80;63.86;100973.16;5088482;28;1633;-66
2021/01/12 05:46:42;;;;;;;;;;;;;;;17.77;62.87;100974.28;5094033;28;1559;-65
2021/01/12 05:49:08;;;;;;;;;;;;;;;17.79;63.78;100974.16;5093452;28;1362;-62
2021/01/12 05:51:41;;;;;;;;;;;;;;;17.78;63.91;100972.44;5091895;28;1476;-66
2021/01/12 05:54:09;;;;;;;;;;;;;;;17.74;63.90;100963.81;5090474;28;2211;-66
2021/01/12 05:56:37;;;;;;;;;;;;;;;17.73;63.69;100953.25;5092041;28;1364;-66
2021/01/12 05:59:02;;;;;;;;;;;;;;;17.73;63.67;100958.59;5093306;28;1914;-57
2021/01/12 06:01:34;;;;;;;;;;;;;;;17.76;63.59;100979.72;5092387;28;1407;-61
2021/01/12 06:04:02;;;;;;;;;;;;;;;17.79;63.14;100964.31;5092645;28;1352;-66
2021/01/12 06:06:27;;;;;;;;;;;;;;;17.90;62.83;100955.44;5088791;28;1487;-57
2021/01/12 06:08:53;;;;;;;;;;;;;;;17.91;62.54;100950.94;5092119;28;1731;-57
2021/01/12 06:11:19;;;;;;;;;;;;;;;17.83;64.70;100944.38;5092286;28;1569;-67
2021/01/12 06:13:56;;;;;;;;;;;;;;;17.82;63.78;100936.44;5091359;28;1577;-66
2021/01/12 06:16:22;;;;;;;;;;;;;;;17.87;64.26;100942.31;5093513;28;1661;-57
2021/01/12 06:19:08;;;;;;;;;;;;;;;17.80;63.68;100936.56;5088345;28;1980;-68
2021/01/12 06:21:34;;;;;;;;;;;;;;;17.76;65.57;100937.78;5089907;28;1816;-58
2021/01/12 06:24:01;;;;;;;;;;;;;;;17.73;66.79;100954.09;5089557;28;1590;-67
2021/01/12 06:26:26;;;;;;;;;;;;;;;17.74;66.25;100954.94;5089467;28;1590;-57
2021/01/12 06:28:52;;;;;;;;;;;;;;;17.79;65.87;100947.41;5088858;28;1683;-57
2021/01/12 06:31:17;;;;;;;;;;;;;;;17.82;65.83;100941.78;5090708;28;1590;-57
2021/01/12 06:33:42;;;;;;;;;;;;;;;17.79;65.69;100948.25;5064316;28;11559;-65
2021/01/12 06:36:09;;;;;;;;;;;;;;;17.78;65.89;100935.84;5072223;28;1752;-67
2021/01/12 06:38:38;;;;;;;;;;;;;;;17.87;65.51;100940.50;5071151;28;1384;-58
2021/01/12 06:41:05;;;;;;;;;;;;;;;17.91;65.03;100903.63;5069664;28;2159;-66
2021/01/12 06:43:30;;;;;;;;;;;;;;;18.02;64.47;100900.91;5067996;28;1665;-69
2021/01/12 06:45:56;;;;;;;;;;;;;;;18.01;64.24;100898.38;5079740;28;1664;-66
2021/01/12 06:48:21;;;;;;;;;;;;;;;18.14;64.22;100900.88;5071578;28;1457;-57
2021/01/12 06:50:47;;;;;;;;;;;;;;;18.14;63.68;100899.06;5069839;28;1342;-58
2021/01/12 06:53:13;;;;;;;;;;;;;;;18.10;63.46;100894.94;5068870;28;1590;-58
2021/01/12 06:55:39;;;;;;;;;;;;;;;18.15;62.97;100906.13;5067666;28;1681;-57
2021/01/12 06:58:08;;;;;;;;;;;;;;;18.17;63.12;100904.16;5070259;28;1378;-58
2021/01/12 07:00:35;;;;;;;;;;;;;;;18.25;62.88;100900.88;5068384;28;1949;-58
2021/01/12 07:03:01;;;;;;;;;;;;;;;18.39;62.30;100905.91;5065249;28;1570;-58
2021/01/12 07:05:39;;;;;;;;;;;;;;;18.56;62.61;100915.22;5070422;28;1577;-58
2021/01/12 07:08:08;;;;;;;;;;;;;;;18.71;62.47;100917.59;5060462;28;1547;-58
2021/01/12 07:10:44;;;;;;;;;;;;;;;18.83;62.34;100911.22;5061597;28;1423;-66
2021/01/12 07:13:09;;;;;;;;;;;;;;;18.92;63.00;100905.06;5070260;28;1877;-67
2021/01/12 07:15:45;;;;;;;;;;;;;;;19.10;63.26;100899.09;5072918;28;1527;-58
2021/01/12 07:18:10;;;;;;;;;;;;;;;19.35;61.70;100912.06;5070819;28;1362;-58
2021/01/12 07:20:36;;;;;;;;;;;;;;;19.50;61.35;100904.50;5066443;28;1914;-69
2021/01/12 07:23:03;;;;;;;;;;;;;;;19.55;61.50;100906.78;5067734;28;1382;-67
2021/01/12 07:25:30;;;;;;;;;;;;;;;19.58;61.84;100899.31;5067109;28;1606;-57
2021/01/12 07:27:56;;;;;;;;;;;;;;;19.59;61.37;100892.94;5066261;28;1546;-66
2021/01/12 07:30:22;;;;;;;;;;;;;;;19.80;60.26;100895.59;5066511;28;1527;-58
2021/01/12 07:32:53;;;;;;;;;;;;;;;19.90;59.68;100905.50;5068772;28;1458;-62
2021/01/12 07:35:19;;;;;;;;;;;;;;;19.90;59.94;100900.16;5071634;28;1810;-64
2021/01/12 07:37:44;;;;;;;;;;;;;;;19.81;59.96;100902.63;5067244;28;1585;-63
2021/01/12 07:40:13;;;;;;;;;;;;;;;19.74;60.45;100906.88;5072537;28;1890;-63
2021/01/12 07:42:46;;;;;;;;;;;;;;;19.63;61.26;100893.53;5057361;28;1689;-68
2021/01/12 07:45:12;;;;;;;;;;;;;;;19.59;61.57;100902.84;5070343;28;1350;-60
2021/01/12 07:47:37;;;;;;;;;;;;;;;19.59;61.27;100894.78;5068335;28;1342;-59
2021/01/12 07:50:02;;;;;;;;;;;;;;;19.46;61.63;100887.00;5071962;28;1435;-71
2021/01/12 07:52:28;;;;;;;;;;;;;;;19.34;61.45;100877.31;5064999;28;1682;-60
2021/01/12 07:54:53;;;;;;;;;;;;;;;19.30;60.65;100862.50;5069899;28;1464;-67
2021/01/12 07:57:19;;;;;;;;;;;;;;;19.27;59.97;100866.31;5062616;28;1527;-60
2021/01/12 07:59:45;;;;;;;;;;;;;;;19.22;60.45;100863.19;5067352;28;1955;-63
2021/01/12 08:02:11;;;;;;;;;;;;;;;19.15;60.66;100852.13;5064432;28;1550;-67
2021/01/12 08:04:37;;;;;;;;;;;;;;;19.18;60.37;100846.53;5066384;28;1596;-57
2021/01/12 08:07:03;;;;;;;;;;;;;;;19.10;61.17;100848.16;5060695;28;1747;-57
2021/01/12 08:09:28;;;;;;;;;;;;;;;18.98;61.15;100836.66;5070415;28;1385;-68
2021/01/12 08:11:58;;;;;;;;;;;;;;;18.72;61.53;100838.91;5053735;28;1757;-66
2021/01/12 08:14:24;;;;;;;;;;;;;;;18.82;61.43;100846.06;5072200;28;1690;-57
2021/01/12 08:16:53;;;;;;;;;;;;;;;18.79;61.78;100850.81;5051336;28;1552;-57
2021/01/12 08:19:22;;;;;;;;;;;;;;;18.79;61.40;100867.75;5072562;28;1918;-57
2021/01/12 08:21:48;;;;;;;;;;;;;;;18.78;61.75;100870.53;5058704;28;1585;-57
2021/01/12 08:24:18;;;;;;;;;;;;;;;18.73;61.68;100862.88;5069128;28;1215;-67
2021/01/12 08:26:44;;;;;;;;;;;;;;;18.76;61.44;100862.63;5065761;28;1668;-57
2021/01/12 08:29:10;;;;;;;;;;;;;;;18.78;62.03;100849.09;5070571;28;1496;-67
2021/01/12 08:31:41;;;;;;;;;;;;;;;18.82;61.75;100859.47;5066991;28;1402;-57
2021/01/12 08:34:07;;;;;;;;;;;;;;;18.98;61.74;100837.53;5070664;28;1574;-57
2021/01/12 08:36:32;;;;;;;;;;;;;;;19.02;61.17;100820.22;5073059;28;1223;-66
2021/01/12 08:38:58;;;;;;;;;;;;;;;19.05;61.26;100803.84;5067024;28;1944;-67
2021/01/12 08:41:24;;;;;;;;;;;;;;;19.14;61.03;100795.97;5066260;28;1343;-57
2021/01/12 08:43:51;;;;;;;;;;;;;;;19.21;60.92;100783.72;5069956;28;1418;-67
2021/01/12 08:46:17;;;;;;;;;;;;;;;19.18;61.00;100775.94;5072667;28;1445;-67
2021/01/12 08:48:49;;;;;;;;;;;;;;;19.23;61.03;100779.09;5060182;28;1326;-67
2021/01/12 08:51:16;;;;;;;;;;;;;;;19.21;60.83;100773.00;5061484;28;1787;-67
2021/01/12 08:53:41;;;;;;;;;;;;;;;19.23;61.01;100787.13;5074058;28;1430;-67
2021/01/12 08:56:07;;;;;;;;;;;;;;;19.19;60.93;100783.03;5069044;28;1075;-57
2021/01/12 08:58:34;;;;;;;;;;;;;;;19.16;61.15;100810.97;5069059;28;1554;-58
2021/01/12 09:01:00;;;;;;;;;;;;;;;19.15;61.22;100819.97;5072712;28;1981;-57
2021/01/12 09:03:26;;;;;;;;;;;;;;;19.05;61.29;100803.00;5070638;28;1536;-57
2021/01/12 09:05:53;;;;;;;;;;;;;;;19.04;61.30;100806.69;5071674;28;1335;-67
2021/01/12 09:08:20;;;;;;;;;;;;;;;19.02;61.51;100793.41;5073586;28;1501;-57
2021/01/12 09:10:45;;;;;;;;;;;;;;;19.01;61.59;100813.13;5072436;28;1402;-57
2021/01/12 09:13:11;;;;;;;;;;;;;;;18.94;61.29;100820.03;5069096;28;1609;-57
2021/01/12 09:15:37;;;;;;;;;;;;;;;18.88;61.83;100817.91;5074724;28;1493;-67
2021/01/12 09:18:19;;;;;;;;;;;;;;;18.87;61.91;100829.59;5073138;28;1630;-57
2021/01/12 09:21:06;;;;;;;;;;;;;;;18.81;61.66;100812.19;5068523;28;1910;-67
2021/01/12 09:23:32;;;;;;;;;;;;;;;18.76;61.50;100797.47;5069315;28;1370;-66
2021/01/12 09:26:00;;;;;;;;;;;;;;;18.67;61.78;100783.06;5071467;28;1465;-57
2021/01/12 09:28:26;;;;;;;;;;;;;;;18.72;61.87;100761.22;5056969;28;1673;-57
2021/01/12 09:31:02;;;;;;;;;;;;;;;18.77;61.68;100772.41;5069295;28;1300;-67
2021/01/12 09:33:27;;;;;;;;;;;;;;;18.77;61.86;100764.34;5065764;28;1363;-67
2021/01/12 09:36:10;;;;;;;;;;;;;;;18.71;62.03;100752.34;5069707;28;1233;-66
2021/01/12 09:38:35;;;;;;;;;;;;;;;18.69;61.60;100749.78;5071269;28;1443;-67
2021/01/12 09:41:00;;;;;;;;;;;;;;;18.66;61.74;100730.44;5071386;28;1949;-57
2021/01/12 09:43:25;;;;;;;;;;;;;;;18.74;64.41;100719.06;5070916;28;1569;-67
2021/01/12 09:45:51;;;;;;;;;;;;;;;18.76;64.15;100717.09;5066850;28;1508;-66
2021/01/12 09:48:16;;;;;;;;;;;;;;;18.73;63.25;100701.31;5067909;28;1621;-67
2021/01/12 09:50:41;;;;;;;;;;;;;;;18.77;63.57;100713.47;5069663;28;1312;-68
2021/01/12 09:53:07;;;;;;;;;;;;;;;18.74;63.11;100684.25;5068280;28;1518;-57
2021/01/12 09:55:32;;;;;;;;;;;;;;;18.79;63.28;100672.19;5070867;28;1493;-68
2021/01/12 09:57:58;;;;;;;;;;;;;;;18.76;63.41;100661.72;5068422;28;1493;-57
2021/01/12 10:00:23;;;;;;;;;;;;;;;18.78;63.70;100649.03;5070106;28;1882;-68
2021/01/12 10:02:48;;;;;;;;;;;;;;;18.86;63.44;100645.69;5067762;28;1446;-67
2021/01/12 10:05:14;;;;;;;;;;;;;;;18.84;62.99;100640.47;5067855;28;1312;-57
2021/01/12 10:07:39;;;;;;;;;;;;;;;18.86;63.08;100630.47;5070694;28;1470;-57
2021/01/12 10:10:05;;;;;;;;;;;;;;;18.87;63.21;100637.50;4364103;28;10000972;-57
2021/01/12 10:12:30;;;;;;;;;;;;;;;18.87;62.86;100636.66;5061032;28;1363;-57
2021/01/12 10:14:56;;;;;;;;;;;;;;;18.94;62.86;100648.53;5065349;28;1185;-64
2021/01/12 10:17:21;;;;;;;;;;;;;;;18.92;63.26;100663.03;5066734;28;1632;-68
2021/01/12 10:19:46;;;;;;;;;;;;;;;18.92;62.89;100645.16;5067267;28;1957;-68
2021/01/12 10:22:12;;;;;;;;;;;;;;;18.94;62.71;100648.53;5069173;28;1411;-68
2021/01/12 10:24:37;;;;;;;;;;;;;;;18.93;63.08;100651.34;5066387;28;1367;-67
2021/01/12 10:27:06;;;;;;;;;;;;;;;18.91;62.94;100629.22;5067787;28;1288;-68
2021/01/12 10:29:32;;;;;;;;;;;;;;;18.91;63.13;100639.94;5068995;28;1217;-57
2021/01/12 10:31:57;;;;;;;;;;;;;;;18.91;62.78;100646.13;5062982;28;1557;-56
2021/01/12 10:34:24;;;;;;;;;;;;;;;18.90;63.41;100644.44;5066120;28;1339;-57
2021/01/12 10:36:50;;;;;;;;;;;;;;;18.98;63.11;100641.03;5069923;28;1281;-57
2021/01/12 10:39:15;;;;;;;;;;;;;;;19.19;62.68;100640.94;5062789;28;1894;-65
2021/01/12 10:41:41;;;;;;;;;;;;;;;19.40;62.15;100627.41;5062156;28;1631;-63
2021/01/12 10:44:06;;;;;;;;;;;;;;;19.61;61.40;100636.13;5067775;28;1422;-66
2021/01/12 10:46:32;;;;;;;;;;;;;;;19.85;61.00;100646.44;5072066;28;1422;-61
2021/01/12 10:48:57;;;;;;;;;;;;;;;20.00;60.40;100636.13;5070509;28;1392;-62
2021/01/12 10:51:23;;;;;;;;;;;;;;;19.99;60.52;100629.03;5073589;28;1214;-59
2021/01/12 10:53:48;;;;;;;;;;;;;;;20.00;60.21;100632.59;5063728;28;1378;-60
2021/01/12 10:56:16;;;;;;;;;;;;;;;19.98;60.47;100645.31;5065946;28;1291;-63
2021/01/12 10:58:42;;;;;;;;;;;;;;;19.94;60.63;100646.59;5068612;28;1340;-63
2021/01/12 11:01:07;;;;;;;;;;;;;;;19.90;60.87;100643.34;5068050;28;1948;-59
2021/01/12 11:03:36;;;;;;;;;;;;;;;19.80;61.20;100637.16;5067639;28;1628;-59
2021/01/12 11:06:01;;;;;;;;;;;;;;;19.73;61.69;100623.44;5069830;28;1174;-63
2021/01/12 11:08:26;;;;;;;;;;;;;;;19.62;61.67;100602.97;5070434;28;2212;-64
2021/01/12 11:10:52;;;;;;;;;;;;;;;19.61;61.92;100578.97;5068797;28;1465;-63
2021/01/12 11:13:18;;;;;;;;;;;;;;;19.54;62.10;100573.34;5057930;28;1399;-64
2021/01/12 11:15:44;;;;;;;;;;;;;;;19.52;62.27;100569.97;5072410;28;1409;-63
2021/01/12 11:18:10;;;;;;;;;;;;;;;19.46;62.31;100557.13;5066491;28;1330;-63
2021/01/12 11:20:36;;;;;;;;;;;;;;;19.41;62.42;100536.09;5068365;28;1973;-63
2021/01/12 11:23:01;;;;;;;;;;;;;;;19.33;62.88;100508.31;5070705;28;1477;-59
2021/01/12 11:25:26;;;;;;;;;;;;;;;19.25;63.07;100487.56;5068590;28;1705;-64
2021/01/12 11:27:52;;;;;;;;;;;;;;;19.22;63.31;100485.19;5071220;28;1399;-59
2021/01/12 11:30:18;;;;;;;;;;;;;;;19.22;63.39;100469.13;5060995;28;1446;-63
2021/01/12 11:32:44;;;;;;;;;;;;;;;19.22;63.57;100466.44;5066077;28;1455;-59
2021/01/12 11:35:10;;;;;;;;;;;;;;;19.17;63.49;100453.44;5071333;28;1633;-59
2021/01/12 11:37:36;;;;;;;;;;;;;;;19.15;63.52;100447.38;5072217;28;1445;-63
2021/01/12 11:40:02;;;;;;;;;;;;;;;19.17;63.18;100439.19;5068018;28;1890;-59
2021/01/12 11:42:27;;;;;;;;;;;;;;;19.19;63.30;100424.66;5068748;28;1400;-59
2021/01/12 11:44:53;;;;;;;;;;;;;;;19.21;62.92;100435.25;5067320;28;1288;-61
2021/01/12 11:47:18;;;;;;;;;;;;;;;19.25;62.81;100452.72;5070148;28;1419;-59
2021/01/12 11:49:44;;;;;;;;;;;;;;;19.26;62.84;100462.47;5070994;28;1660;-59
2021/01/12 11:52:09;;;;;;;;;;;;;;;19.13;62.54;100480.69;5071719;28;1429;-60
2021/01/12 11:54:35;;;;;;;;;;;;;;;18.94;63.33;100493.13;5066598;28;1351;-63
2021/01/12 11:57:02;;;;;;;;;;;;;;;18.92;63.46;100516.53;5066328;28;1021;-59
2021/01/12 11:59:27;;;;;;;;;;;;;;;18.95;63.15;100518.91;5066849;28;1969;-65
2021/01/12 12:01:54;;;;;;;;;;;;;;;19.05;62.65;100498.31;5066484;28;1683;-68
2021/01/12 12:04:20;;;;;;;;;;;;;;;19.13;62.83;100480.69;5067354;28;1411;-68
2021/01/12 12:06:46;;;;;;;;;;;;;;;19.15;62.61;100455.41;5069194;28;1201;-70
2021/01/12 12:09:11;;;;;;;;;;;;;;;19.17;62.66;100453.44;5067797;28;2196;-58
2021/01/12 12:11:37;;;;;;;;;;;;;;;19.12;63.10;100468.25;5061797;28;1531;-64
2021/01/12 12:14:03;;;;;;;;;;;;;;;19.07;62.69;100499.03;5064475;28;1557;-59
2021/01/12 12:16:29;;;;;;;;;;;;;;;18.95;62.10;100484.09;5066269;28;1393;-57
2021/01/12 12:18:54;;;;;;;;;;;;;;;18.74;58.70;100484.22;5068689;28;1910;-57
2021/01/12 12:21:20;;;;;;;;;;;;;;;18.79;61.80;100481.09;5070387;28;1300;-57
2021/01/12 12:23:45;;;;;;;;;;;;;;;18.80;60.90;100482.81;5070294;28;1382;-58
2021/01/12 12:26:11;;;;;;;;;;;;;;;18.79;60.70;100457.00;5069510;28;1416;-63
2021/01/12 12:28:37;;;;;;;;;;;;;;;18.78;60.91;100437.41;5068289;28;1527;-59
2021/01/12 12:31:03;;;;;;;;;;;;;;;18.80;61.26;100458.69;5064761;28;1476;-59
2021/01/12 12:33:28;;;;;;;;;;;;;;;18.81;60.82;100436.28;5067063;28;1527;-60
2021/01/12 12:35:53;;;;;;;;;;;;;;;18.85;60.57;100465.34;5070192;28;1480;-65
2021/01/12 12:38:18;;;;;;;;;;;;;;;18.91;60.65;100441.66;5066013;28;1471;-58
2021/01/12 12:40:44;;;;;;;;;;;;;;;18.95;60.95;100422.44;5069029;28;1962;-65
2021/01/12 12:43:09;;;;;;;;;;;;;;;18.96;60.94;100424.16;5066252;28;1505;-57
2021/01/12 12:45:35;;;;;;;;;;;;;;;19.01;61.05;100440.63;5070105;28;1496;-61